Time;durP1;ratioP1;P1;durP2;ratioP2;P2;SDS_P1;SDS_P2;PMS_P1;PMS_P2;Temp;Humidity;BMP_temperature;BMP_pressure;BME280_temperature;BME280_humidity;BME280_pressure;Samples;Min_cycle;Max_cycle;Signal;HPM_P1;HPM_P2
2022/01/14 00:02:03;;;;;;;;;;;9.50;99.90;;;;;;5033473;28;20025;-83
2022/01/14 00:04:29;;;;;;;10.65;4.63;;;9.60;99.90;;;;;;5050928;28;20257;-83
2022/01/14 00:06:56;;;;;;;13.93;4.53;;;9.60;99.90;;;;;;5051609;28;20029;-83
2022/01/14 00:09:22;;;;;;;13.88;4.03;;;9.50;99.90;;;;;;5050874;28;20036;-82
2022/01/14 00:11:54;;;;;;;13.18;4.55;;;9.40;99.90;;;;;;5053833;28;20024;-83
2022/01/14 00:14:37;;;;;;;11.30;4.53;;;9.40;99.90;;;;;;5055149;28;20079;-83
2022/01/14 00:17:08;;;;;;;9.75;4.10;;;9.30;99.90;;;;;;5055418;28;20028;-82
2022/01/14 00:19:34;;;;;;;13.65;4.82;;;9.10;99.90;;;;;;5054977;28;20393;-83
2022/01/14 00:22:07;;;;;;;10.45;4.95;;;9.10;99.90;;;;;;5054894;28;20021;-82
2022/01/14 00:32:59;;;;;;;14.48;5.72;;;8.70;99.90;;;;;;5055267;28;20031;-83
2022/01/14 00:35:25;;;;;;;11.35;4.10;;;8.70;99.90;;;;;;5054712;28;20037;-83
2022/01/14 00:37:52;;;;;;;12.63;4.05;;;8.70;99.90;;;;;;5054828;28;20402;-83
2022/01/14 00:40:18;;;;;;;11.82;4.10;;;8.70;99.90;;;;;;5054704;28;20043;-83
2022/01/14 00:42:45;;;;;;;6.68;3.53;;;8.70;99.90;;;;;;5054714;28;20048;-83
2022/01/14 00:45:11;;;;;;;;;;;8.80;99.90;;;;;;5055316;28;20029;-83
2022/01/14 00:47:39;;;;;;;8.82;4.13;;;8.70;99.90;;;;;;5054698;28;19944;-83
2022/01/14 00:50:08;;;;;;;10.93;3.83;;;8.70;99.90;;;;;;5036431;28;20043;-82
2022/01/14 00:52:37;;;;;;;10.93;4.18;;;8.70;99.90;;;;;;5054379;28;20025;-82
2022/01/14 00:55:05;;;;;;;9.48;4.10;;;8.60;99.90;;;;;;5054348;28;20475;-82
2022/01/14 01:00:17;;;;;;;13.20;4.10;;;8.60;99.90;;;;;;5054759;28;20035;-82
2022/01/14 01:02:43;;;;;;;11.00;4.40;;;8.50;99.90;;;;;;5054856;28;20461;-83
2022/01/14 01:05:12;;;;;;;12.40;4.53;;;8.50;99.90;;;;;;5054305;28;20056;-83
2022/01/14 01:07:43;;;;;;;7.85;4.18;;;8.50;99.90;;;;;;5054578;28;20021;-83
2022/01/14 01:10:11;;;;;;;9.18;4.15;;;8.50;99.90;;;;;;5055069;28;20036;-83
2022/01/14 01:12:53;;;;;;;9.57;3.63;;;8.50;99.90;;;;;;5054859;28;20357;-83
2022/01/14 01:15:20;;;;;;;6.70;4.32;;;8.50;99.90;;;;;;5054806;28;20437;-83
2022/01/14 01:17:47;;;;;;;10.60;3.92;;;8.50;99.90;;;;;;5054371;28;20024;-83
2022/01/14 01:20:17;;;;;;;;;;;8.50;99.90;;;;;;5055222;28;20021;-83
2022/01/14 01:22:45;;;;;;;12.77;4.07;;;8.60;99.90;;;;;;5054189;28;19958;-83
2022/01/14 01:25:14;;;;;;;10.68;4.13;;;8.60;99.90;;;;;;5054213;28;20032;-81
2022/01/14 01:27:43;;;;;;;9.82;4.50;;;8.60;99.90;;;;;;5053943;28;20041;-81
2022/01/14 01:32:57;;;;;;;13.55;4.43;;;8.50;99.90;;;;;;5054314;28;20057;-83
2022/01/14 01:35:23;;;;;;;10.13;3.53;;;8.50;99.90;;;;;;5054364;28;20025;-82
2022/01/14 01:37:50;;;;;;;9.87;4.30;;;8.30;99.90;;;;;;5054097;28;20025;-81
2022/01/14 01:40:19;;;;;;;6.57;3.63;;;8.20;99.90;;;;;;5053699;28;20111;-81
2022/01/14 01:42:45;;;;;;;13.10;4.30;;;8.20;99.90;;;;;;5053950;28;20051;-81
2022/01/14 01:45:15;;;;;;;9.73;3.80;;;8.10;99.90;;;;;;5053657;28;20495;-81
2022/01/14 01:47:44;;;;;;;12.50;4.43;;;8.10;99.90;;;;;;5053722;28;20029;-82
2022/01/14 01:50:16;;;;;;;7.80;3.25;;;8.10;99.90;;;;;;5053942;28;20025;-81
2022/01/14 01:52:43;;;;;;;11.90;3.53;;;8.10;99.90;;;;;;5053705;28;20037;-83
2022/01/14 01:55:10;;;;;;;6.95;3.45;;;8.10;99.90;;;;;;5053471;28;20025;-82
2022/01/14 01:57:36;;;;;;;9.00;3.50;;;8.00;99.90;;;;;;5053626;28;20057;-82
2022/01/14 02:00:09;;;;;;;10.45;3.67;;;8.10;99.90;;;;;;5053403;28;20033;-82
2022/01/14 02:02:36;;;;;;;5.80;3.65;;;8.10;99.90;;;;;;5053714;28;20025;-83
2022/01/14 02:05:04;;;;;;;12.10;3.60;;;8.20;99.90;;;;;;5053178;28;20053;-82
2022/01/14 02:07:34;;;;;;;7.03;2.90;;;8.20;99.90;;;;;;5053521;28;20074;-83
2022/01/14 02:10:01;;;;;;;7.95;3.40;;;8.30;99.90;;;;;;5053106;28;20096;-82
2022/01/14 02:12:36;;;;;;;7.22;3.42;;;8.30;99.90;;;;;;5053284;28;20099;-82
2022/01/14 02:17:53;;;;;;;6.82;3.22;;;8.30;99.90;;;;;;5053410;28;20029;-83
2022/01/14 02:23:06;;;;;;;7.30;2.97;;;8.20;99.90;;;;;;5052968;28;20120;-83
2022/01/14 02:25:33;;;;;;;9.38;2.88;;;8.20;99.90;;;;;;5052843;28;20115;-82
2022/01/14 02:28:07;;;;;;;10.80;3.40;;;8.20;99.90;;;;;;5053210;28;20052;-83
2022/01/14 02:30:35;;;;;;;10.10;3.08;;;8.30;99.90;;;;;;5052937;28;20343;-82
2022/01/14 02:33:02;;;;;;;6.90;3.05;;;8.30;99.90;;;;;;5052221;28;20025;-82
2022/01/14 02:35:29;;;;;;;7.57;2.80;;;8.30;99.90;;;;;;5034902;28;20427;-82
2022/01/14 02:37:55;;;;;;;;;;;8.20;99.90;;;;;;5053161;28;20048;-83
2022/01/14 02:40:22;;;;;;;9.20;3.55;;;8.20;99.90;;;;;;5052737;28;20015;-81
2022/01/14 02:42:49;;;;;;;5.13;2.80;;;8.20;99.90;;;;;;5052561;28;20062;-81
2022/01/14 02:45:17;;;;;;;9.15;3.22;;;8.20;99.90;;;;;;5052309;28;20358;-81
2022/01/14 02:47:44;;;;;;;5.32;2.40;;;8.20;99.90;;;;;;5052283;28;20021;-82
2022/01/14 02:50:15;;;;;;;;;;;8.20;99.90;;;;;;5052747;28;20095;-82
2022/01/14 02:52:57;;;;;;;5.07;2.55;;;8.20;99.90;;;;;;5052419;28;20349;-81
2022/01/14 02:55:29;;;;;;;6.15;2.67;;;8.20;99.90;;;;;;5052513;28;20116;-81
2022/01/14 02:57:57;;;;;;;6.88;2.75;;;8.10;99.90;;;;;;5052057;28;20049;-81
2022/01/14 03:00:30;;;;;;;7.78;2.95;;;8.10;99.90;;;;;;5052236;28;20069;-81
2022/01/14 03:03:00;;;;;;;8.77;2.80;;;8.10;99.90;;;;;;5052400;28;20198;-81
2022/01/14 03:05:29;;;;;;;5.82;2.65;;;8.10;99.90;;;;;;5051452;28;20191;-82
2022/01/14 03:07:55;;;;;;;7.55;3.63;;;8.10;99.90;;;;;;5051951;28;20037;-82
2022/01/14 03:10:21;;;;;;;9.37;2.80;;;8.10;99.90;;;;;;5051954;28;20620;-81
2022/01/14 03:12:48;;;;;;;5.25;2.53;;;8.10;99.90;;;;;;5052045;28;20092;-81
2022/01/14 03:15:15;;;;;;;5.47;2.70;;;8.10;99.90;;;;;;5051623;28;20315;-82
2022/01/14 03:17:41;;;;;;;;;;;8.10;99.90;;;;;;5051909;28;20426;-81
2022/01/14 03:20:11;;;;;;;5.63;2.67;;;8.10;99.90;;;;;;5051919;28;19911;-81
2022/01/14 03:22:41;;;;;;;4.80;2.50;;;8.00;99.90;;;;;;5051524;28;20021;-82
2022/01/14 03:27:53;;;;;;;9.35;2.70;;;8.00;99.90;;;;;;5052032;28;20031;-81
2022/01/14 03:30:19;;;;;;;6.03;2.30;;;8.00;99.90;;;;;;5051404;28;20061;-82
2022/01/14 03:32:47;;;;;;;9.67;2.83;;;8.00;99.90;;;;;;5051662;28;20017;-82
2022/01/14 03:35:13;;;;;;;5.65;2.33;;;8.00;99.90;;;;;;5051330;28;20047;-82
2022/01/14 03:37:40;;;;;;;8.80;2.90;;;8.00;99.90;;;;;;5051225;28;20029;-82
2022/01/14 03:40:08;;;;;;;5.28;2.30;;;8.00;99.90;;;;;;5050734;28;20032;-81
2022/01/14 03:42:34;;;;;;;6.00;2.50;;;8.00;99.90;;;;;;5032750;28;20407;-81
2022/01/14 03:45:00;;;;;;;6.33;2.33;;;7.90;99.90;;;;;;5051332;28;20112;-81
2022/01/14 03:47:26;;;;;;;7.17;2.50;;;8.00;99.90;;;;;;5051288;28;20043;-81
2022/01/14 03:49:52;;;;;;;6.97;2.92;;;7.90;99.90;;;;;;5051052;28;20112;-81
2022/01/14 03:52:18;;;;;;;5.22;2.50;;;7.90;99.90;;;;;;5050638;28;20021;-81
2022/01/14 03:54:45;;;;;;;8.65;2.63;;;7.90;99.90;;;;;;5051040;28;20107;-81
2022/01/14 03:57:11;;;;;;;7.10;2.53;;;8.00;99.90;;;;;;5050563;28;20036;-81
2022/01/14 03:59:37;;;;;;;5.78;2.35;;;7.90;99.90;;;;;;5050824;28;20013;-81
2022/01/14 04:02:03;;;;;;;5.88;2.40;;;7.90;99.90;;;;;;5050575;28;20025;-81
2022/01/14 04:04:29;;;;;;;6.75;2.40;;;7.90;99.90;;;;;;5050468;28;20029;-82
2022/01/14 04:06:55;;;;;;;5.40;2.42;;;7.90;99.90;;;;;;5051571;28;20060;-82
2022/01/14 04:09:21;;;;;;;6.22;2.70;;;8.00;99.90;;;;;;5051209;28;20044;-82
2022/01/14 04:11:47;;;;;;;4.65;2.15;;;7.90;99.90;;;;;;5051623;28;20485;-82
2022/01/14 04:17:03;;;;;;;7.05;2.40;;;8.00;99.90;;;;;;5022518;28;20099;-82
2022/01/14 04:19:30;;;;;;;6.57;2.88;;;8.00;99.90;;;;;;5051175;28;20027;-83
2022/01/14 04:21:56;;;;;;;5.82;2.28;;;8.00;99.90;;;;;;5051069;28;20036;-82
2022/01/14 04:24:22;;;;;;;8.02;2.60;;;7.90;99.90;;;;;;5052179;28;20071;-82
2022/01/14 04:26:48;;;;;;;9.43;3.10;;;7.90;99.90;;;;;;5051721;28;20021;-83
2022/01/14 04:29:15;;;;;;;6.35;2.10;;;7.90;99.90;;;;;;5051742;28;20112;-82
2022/01/14 04:31:41;;;;;;;5.63;2.55;;;8.00;99.90;;;;;;5051051;28;20040;-82
2022/01/14 04:34:07;;;;;;;6.63;2.65;;;8.00;99.90;;;;;;5050814;28;20032;-82
2022/01/14 04:36:33;;;;;;;5.70;2.47;;;7.90;99.90;;;;;;5050501;28;20037;-82
2022/01/14 04:38:59;;;;;;;6.15;2.50;;;7.90;99.90;;;;;;5050789;28;20029;-83
2022/01/14 04:41:25;;;;;;;7.25;2.50;;;7.90;99.90;;;;;;5051595;28;20029;-83
2022/01/14 04:43:52;;;;;;;6.07;2.83;;;7.90;99.90;;;;;;5051458;28;20021;-82
2022/01/14 04:48:56;;;;;;;4.82;2.45;;;7.80;99.90;;;;;;5051306;28;20033;-82
2022/01/14 04:51:22;;;;;;;7.35;2.47;;;7.80;99.90;;;;;;5051320;28;20057;-82
2022/01/14 04:53:48;;;;;;;6.07;2.50;;;7.80;99.90;;;;;;5051149;28;20021;-82
2022/01/14 04:56:15;;;;;;;5.45;2.67;;;7.70;99.90;;;;;;5051241;28;20496;-82
2022/01/14 04:58:41;;;;;;;6.83;2.70;;;7.70;99.90;;;;;;5055493;28;20311;-82
2022/01/14 05:01:07;;;;;;;5.22;2.47;;;7.60;99.90;;;;;;5055138;28;20346;-82
2022/01/14 05:03:33;;;;;;;5.13;2.67;;;7.50;99.90;;;;;;5055294;28;20025;-82
2022/01/14 05:06:01;;;;;;;9.35;2.90;;;7.30;99.90;;;;;;5054765;28;20063;-82
2022/01/14 05:08:36;;;;;;;7.63;2.65;;;7.20;99.90;;;;;;5055094;28;20481;-82
2022/01/14 05:11:21;;;;;;;5.65;2.50;;;7.10;99.90;;;;;;5054715;28;20084;-83
2022/01/14 05:13:47;;;;;;;8.23;3.20;;;7.10;99.90;;;;;;5054590;28;20025;-82
2022/01/14 05:16:13;;;;;;;6.05;2.70;;;7.00;99.90;;;;;;5055201;28;20523;-82
2022/01/14 05:18:40;;;;;;;6.55;3.10;;;6.80;99.90;;;;;;5055881;28;20025;-83
2022/01/14 05:21:06;;;;;;;;;;;6.80;99.90;;;;;;5056215;28;20024;-82
2022/01/14 05:23:33;;;;;;;6.00;2.75;;;6.80;99.90;;;;;;5055331;28;19912;-82
2022/01/14 05:25:59;;;;;;;7.07;3.00;;;6.80;99.90;;;;;;5055254;28;20103;-82
2022/01/14 05:28:25;;;;;;;6.38;2.70;;;6.80;99.90;;;;;;5055092;28;20032;-82
2022/01/14 05:30:51;;;;;;;10.18;2.72;;;6.80;99.90;;;;;;5055210;28;20048;-78
2022/01/14 05:33:19;;;;;;;6.68;2.65;;;6.70;99.90;;;;;;5055194;28;20086;-82
2022/01/14 05:35:45;;;;;;;8.15;2.40;;;6.70;99.90;;;;;;5054670;28;20071;-82
2022/01/14 05:38:11;;;;;;;5.75;2.50;;;6.70;99.90;;;;;;5056178;28;20334;-82
2022/01/14 05:40:38;;;;;;;5.97;2.97;;;6.70;99.90;;;;;;5054582;28;20167;-82
2022/01/14 05:43:04;;;;;;;7.13;2.80;;;6.80;99.90;;;;;;5035906;28;20025;-82
2022/01/14 05:45:30;;;;;;;6.93;3.47;;;6.70;99.90;;;;;;5054566;28;20028;-84
2022/01/14 05:47:56;;;;;;;5.63;2.83;;;6.60;99.90;;;;;;5054400;28;20051;-84
2022/01/14 05:50:24;;;;;;;5.85;3.20;;;6.60;99.90;;;;;;5054699;28;20450;-83
2022/01/14 05:52:51;;;;;;;8.13;3.20;;;6.60;99.90;;;;;;5054137;28;20052;-82
2022/01/14 05:55:19;;;;;;;9.50;3.03;;;6.60;99.90;;;;;;5054462;28;20056;-83
2022/01/14 05:57:45;;;;;;;4.93;2.63;;;6.60;99.90;;;;;;5054123;28;20025;-82
2022/01/14 06:00:15;;;;;;;11.80;3.50;;;6.60;99.90;;;;;;5054314;28;20065;-83
2022/01/14 06:02:41;;;;;;;4.88;2.47;;;6.50;99.90;;;;;;5054291;28;20032;-83
2022/01/14 06:05:07;;;;;;;9.38;2.70;;;6.50;99.90;;;;;;5053023;28;20118;-82
2022/01/14 06:07:33;;;;;;;6.13;3.15;;;6.40;99.90;;;;;;5053534;28;20461;-81
2022/01/14 06:09:59;;;;;;;6.47;2.80;;;6.40;99.90;;;;;;5054239;28;20043;-81
2022/01/14 06:12:25;;;;;;;7.43;3.40;;;6.40;99.90;;;;;;5054440;28;20021;-81
2022/01/14 06:14:51;;;;;;;6.45;2.55;;;6.40;99.90;;;;;;5053873;28;20108;-80
2022/01/14 06:17:17;;;;;;;8.52;2.70;;;6.40;99.90;;;;;;5053582;28;20049;-83
2022/01/14 06:19:45;;;;;;;8.05;3.10;;;6.40;99.90;;;;;;5053914;28;20443;-80
2022/01/14 06:22:11;;;;;;;6.85;2.72;;;6.50;99.90;;;;;;5053949;28;20025;-80
2022/01/14 06:24:37;;;;;;;8.13;2.83;;;6.60;99.90;;;;;;5053916;28;20025;-81
2022/01/14 06:27:04;;;;;;;10.27;3.38;;;6.60;99.90;;;;;;5053709;28;20028;-80
2022/01/14 06:29:30;;;;;;;6.95;2.65;;;6.60;99.90;;;;;;5054431;28;20385;-80
2022/01/14 06:31:56;;;;;;;7.60;3.00;;;6.60;99.90;;;;;;5054025;28;20112;-80
2022/01/14 06:34:22;;;;;;;10.40;3.10;;;6.60;99.90;;;;;;5054242;28;20041;-79
2022/01/14 06:36:48;;;;;;;6.78;2.70;;;6.70;99.90;;;;;;5053745;28;20021;-81
2022/01/14 06:39:14;;;;;;;8.23;2.80;;;6.90;99.90;;;;;;5053638;28;20032;-70
2022/01/14 06:41:40;;;;;;;7.07;2.88;;;7.20;99.90;;;;;;5053510;28;20116;-70
2022/01/14 06:44:07;;;;;;;15.32;4.20;;;7.60;99.90;;;;;;5053724;28;20108;-70
2022/01/14 06:46:33;;;;;;;13.25;6.95;;;8.10;99.90;;;;;;5053726;28;20036;-70
2022/01/14 06:49:00;;;;;;;7.07;3.20;;;8.40;99.90;;;;;;5053378;28;20045;-71
2022/01/14 06:51:27;;;;;;;7.78;3.60;;;8.70;99.90;;;;;;5053820;28;20104;-71
2022/01/14 06:53:53;;;;;;;10.77;3.13;;;8.80;99.90;;;;;;5054349;28;20075;-71
2022/01/14 06:56:19;;;;;;;5.60;2.90;;;9.20;99.90;;;;;;5053352;28;20036;-68
2022/01/14 06:58:45;;;;;;;6.60;2.60;;;9.50;99.90;;;;;;5053940;28;20021;-69
2022/01/14 07:01:12;;;;;;;7.17;3.03;;;9.90;99.90;;;;;;5053464;28;20060;-70
2022/01/14 07:03:38;;;;;;;5.20;2.60;;;10.40;99.90;;;;;;5053195;28;20489;-70
2022/01/14 07:06:04;;;;;;;6.22;2.60;;;10.70;99.90;;;;;;5053091;28;20056;-70
2022/01/14 07:08:30;;;;;;;6.33;2.60;;;10.70;99.90;;;;;;5053580;28;20040;-70
2022/01/14 07:10:56;;;;;;;5.67;2.57;;;10.50;99.90;;;;;;5053497;28;20044;-69
2022/01/14 07:13:22;;;;;;;8.48;2.72;;;10.60;99.90;;;;;;5053036;28;20082;-70
2022/01/14 07:15:48;;;;;;;4.88;2.15;;;11.20;99.90;;;;;;5035207;28;20032;-70
2022/01/14 07:18:16;;;;;;;6.30;2.67;;;12.00;99.90;;;;;;5052798;28;20028;-70
2022/01/14 07:20:42;;;;;;;7.30;2.63;;;12.40;99.20;;;;;;5052261;28;20116;-69
2022/01/14 07:23:08;;;;;;;5.65;2.50;;;12.70;99.60;;;;;;5052755;28;20021;-70
2022/01/14 07:25:34;;;;;;;6.57;2.43;;;13.40;97.40;;;;;;5052491;28;20028;-70
2022/01/14 07:28:00;;;;;;;12.77;3.20;;;13.40;97.60;;;;;;5052559;28;20286;-71
2022/01/14 07:30:26;;;;;;;4.83;2.30;;;14.00;97.00;;;;;;5052622;28;20128;-70
2022/01/14 07:32:52;;;;;;;7.47;2.90;;;14.20;97.00;;;;;;5053148;28;20057;-70
2022/01/14 07:35:18;;;;;;;8.43;2.63;;;14.20;96.00;;;;;;5052318;28;20433;-70
2022/01/14 07:37:44;;;;;;;5.40;2.60;;;13.80;96.10;;;;;;5052417;28;20021;-70
2022/01/14 07:40:11;;;;;;;8.33;2.73;;;13.60;96.40;;;;;;5052924;28;20032;-71
2022/01/14 07:42:38;;;;;;;5.45;2.33;;;13.50;96.40;;;;;;5052428;28;20064;-71
2022/01/14 07:45:04;;;;;;;7.10;2.55;;;13.50;96.50;;;;;;5052148;28;20028;-71
2022/01/14 07:47:31;;;;;;;;;;;14.00;96.30;;;;;;5053063;28;20449;-71
2022/01/14 07:49:57;;;;;;;9.25;2.88;;;14.30;95.80;;;;;;5052136;28;19913;-70
2022/01/14 07:52:23;;;;;;;6.85;2.40;;;14.60;95.50;;;;;;5052159;28;20369;-70
2022/01/14 07:54:49;;;;;;;6.95;2.67;;;14.60;94.90;;;;;;5052120;28;20385;-71
2022/01/14 07:57:17;;;;;;;5.07;2.90;;;14.20;95.60;;;;;;5052170;28;20055;-70
2022/01/14 07:59:43;;;;;;;9.65;3.35;;;13.50;96.30;;;;;;5052208;28;20087;-70
2022/01/14 08:02:09;;;;;;;6.57;2.70;;;13.20;96.90;;;;;;5051835;28;20032;-70
2022/01/14 08:04:37;;;;;;;9.20;3.20;;;13.00;97.50;;;;;;5052239;28;20037;-70
2022/01/14 08:07:09;;;;;;;5.65;2.70;;;12.80;97.70;;;;;;5052095;28;20353;-70
2022/01/14 08:09:41;;;;;;;10.10;3.15;;;12.40;98.00;;;;;;5052114;28;20036;-71
2022/01/14 08:12:09;;;;;;;7.55;2.88;;;12.00;98.80;;;;;;5052642;28;20049;-71
2022/01/14 08:14:36;;;;;;;6.18;2.42;;;11.70;99.00;;;;;;5051698;28;20466;-69
2022/01/14 08:17:02;;;;;;;;;;;11.30;99.70;;;;;;5051669;28;20110;-70
2022/01/14 08:19:32;;;;;;;8.00;2.97;;;10.90;99.90;;;;;;5051148;28;19968;-70
2022/01/14 08:22:00;;;;;;;11.65;2.75;;;10.80;99.90;;;;;;5051851;28;20115;-70
2022/01/14 08:24:26;;;;;;;9.20;3.83;;;10.80;99.90;;;;;;5051774;28;20110;-70
2022/01/14 08:26:52;;;;;;;7.35;2.92;;;10.90;99.90;;;;;;5051839;28;20036;-70
2022/01/14 08:29:18;;;;;;;9.18;3.03;;;10.70;99.90;;;;;;5052147;28;20033;-71
2022/01/14 08:31:44;;;;;;;13.73;3.30;;;10.90;99.90;;;;;;5052845;28;20044;-71
2022/01/14 08:34:10;;;;;;;8.68;3.35;;;11.10;99.90;;;;;;5056442;28;20477;-71
2022/01/14 08:36:36;;;;;;;7.53;2.75;;;11.10;99.90;;;;;;5055495;28;20100;-71
2022/01/14 08:39:03;;;;;;;9.32;3.53;;;11.20;99.90;;;;;;5037406;28;20440;-70
2022/01/14 08:41:30;;;;;;;8.43;3.10;;;11.00;99.90;;;;;;5055741;28;20035;-71
2022/01/14 08:44:00;;;;;;;7.35;3.17;;;11.00;99.90;;;;;;5055487;28;20442;-71
2022/01/14 08:46:27;;;;;;;9.18;2.85;;;11.00;99.90;;;;;;5055596;28;20075;-71
2022/01/14 08:48:54;;;;;;;;;;;10.90;99.90;;;;;;5055457;28;20033;-71
2022/01/14 08:51:21;;;;;;;8.07;3.25;;;10.80;99.60;;;;;;5037185;28;19905;-71
2022/01/14 08:53:47;;;;;;;6.28;2.90;;;10.80;99.90;;;;;;5054946;28;20543;-71
2022/01/14 08:56:13;;;;;;;8.23;2.40;;;11.10;99.30;;;;;;5055183;28;20021;-71
2022/01/14 08:58:40;;;;;;;7.80;3.38;;;11.20;99.10;;;;;;5055221;28;20037;-71
2022/01/14 09:01:06;;;;;;;9.80;2.97;;;11.40;98.90;;;;;;5054834;28;20460;-71
2022/01/14 09:03:32;;;;;;;7.40;3.13;;;11.40;99.10;;;;;;5055216;28;20038;-71
2022/01/14 09:05:58;;;;;;;9.40;3.13;;;11.70;99.40;;;;;;5036722;28;20056;-71
2022/01/14 09:08:25;;;;;;;6.73;2.73;;;11.50;98.70;;;;;;5054810;28;20017;-71
2022/01/14 09:10:51;;;;;;;7.28;2.90;;;11.60;98.70;;;;;;5055278;28;20029;-71
2022/01/14 09:13:17;;;;;;;7.53;2.87;;;11.70;98.60;;;;;;5055030;28;20036;-71
2022/01/14 09:15:44;;;;;;;6.22;2.85;;;11.90;98.80;;;;;;5055021;28;20395;-71
2022/01/14 09:18:10;;;;;;;;;;;12.00;98.20;;;;;;5055296;28;20106;-71
2022/01/14 09:20:36;;;;;;;7.37;3.13;;;11.80;97.10;;;;;;5055576;28;20012;-71
2022/01/14 09:23:04;;;;;;;6.65;2.90;;;12.00;97.60;;;;;;5037133;28;20090;-71
2022/01/14 09:25:30;;;;;;;7.38;2.85;;;12.10;98.30;;;;;;5054940;28;20385;-71
2022/01/14 09:27:56;;;;;;;5.13;2.90;;;12.30;97.00;;;;;;5055187;28;20025;-71
2022/01/14 09:30:24;;;;;;;6.70;2.70;;;12.30;97.10;;;;;;5054687;28;20048;-71
2022/01/14 09:32:50;;;;;;;4.85;2.50;;;12.30;96.80;;;;;;5055296;28;20024;-71
2022/01/14 09:35:17;;;;;;;4.28;2.50;;;12.30;96.10;;;;;;5054858;28;20025;-70
2022/01/14 09:37:48;;;;;;;7.13;2.63;;;12.10;96.50;;;;;;5054887;28;20083;-70
2022/01/14 09:40:16;;;;;;;6.18;2.65;;;12.10;96.80;;;;;;5055457;28;20046;-71
2022/01/14 09:42:49;;;;;;;6.75;2.55;;;12.00;97.20;;;;;;5054687;28;20025;-72
2022/01/14 09:45:17;;;;;;;6.00;2.88;;;12.20;97.70;;;;;;5054644;28;20047;-70
2022/01/14 09:47:50;;;;;;;6.45;2.80;;;12.40;96.80;;;;;;5054619;28;20056;-69
2022/01/14 09:50:18;;;;;;;4.63;2.33;;;12.30;97.10;;;;;;5036090;28;20094;-68
2022/01/14 09:52:45;;;;;;;4.60;2.83;;;12.30;97.10;;;;;;5054847;28;20424;-68
2022/01/14 09:55:11;;;;;;;6.18;3.15;;;12.50;97.00;;;;;;5053699;28;20338;-68
2022/01/14 09:57:38;;;;;;;7.18;3.35;;;12.50;96.90;;;;;;5054181;28;20024;-68
2022/01/14 10:00:06;;;;;;;10.50;3.80;;;12.50;97.50;;;;;;5054106;28;20496;-69
2022/01/14 10:02:36;;;;;;;7.40;3.05;;;12.50;98.20;;;;;;5054299;28;20405;-68
2022/01/14 10:05:04;;;;;;;5.15;2.67;;;12.70;97.00;;;;;;5053870;28;20048;-67
2022/01/14 10:07:32;;;;;;;7.07;3.22;;;12.80;96.60;;;;;;5053790;28;20021;-68
2022/01/14 10:10:00;;;;;;;8.98;2.83;;;12.40;96.70;;;;;;5052918;28;20033;-69
2022/01/14 10:12:33;;;;;;;6.82;3.67;;;12.30;97.10;;;;;;5053489;28;20055;-68
2022/01/14 10:15:09;;;;;;;6.63;2.90;;;12.30;97.20;;;;;;5054130;28;20090;-68
2022/01/14 10:17:45;;;;;;;11.20;3.20;;;12.30;97.40;;;;;;5053372;28;20029;-69
2022/01/14 10:20:13;;;;;;;6.32;3.15;;;12.40;96.90;;;;;;5053605;28;20052;-69
2022/01/14 10:22:42;;;;;;;10.35;2.97;;;12.50;97.00;;;;;;5053461;28;20485;-69
2022/01/14 10:25:09;;;;;;;7.22;3.10;;;12.40;96.80;;;;;;5053799;28;20064;-69
2022/01/14 10:27:35;;;;;;;7.05;2.90;;;12.60;96.80;;;;;;5053434;28;20028;-68
2022/01/14 10:30:28;;;;;;;5.95;3.00;;;12.80;97.20;;;;;;5034431;28;20037;-68
2022/01/14 10:32:55;;;;;;;11.05;3.70;;;12.80;96.90;;;;;;5053830;28;20116;-69
2022/01/14 10:35:23;;;;;;;7.90;3.58;;;13.00;97.20;;;;;;5035342;28;20021;-69
2022/01/14 10:37:49;;;;;;;8.93;3.40;;;13.10;96.60;;;;;;5053847;28;20392;-68
2022/01/14 10:40:21;;;;;;;8.73;3.47;;;13.20;96.90;;;;;;5053191;28;20025;-67
2022/01/14 10:42:50;;;;;;;6.95;3.10;;;13.30;96.70;;;;;;5053709;28;20069;-67
2022/01/14 10:45:22;;;;;;;6.18;3.03;;;13.30;96.70;;;;;;5052883;28;20094;-67
2022/01/14 10:47:57;;;;;;;8.00;3.03;;;13.20;96.30;;;;;;5052656;28;20041;-68
2022/01/14 10:50:45;;;;;;;6.72;3.30;;;13.20;96.50;;;;;;5052806;28;20132;-66
2022/01/14 10:53:26;;;;;;;8.15;3.83;;;13.30;96.70;;;;;;5053637;28;20057;-68
2022/01/14 10:56:04;;;;;;;5.95;2.75;;;13.00;97.30;;;;;;5014507;28;20489;-68
2022/01/14 10:58:38;;;;;;;5.63;3.00;;;13.00;96.60;;;;;;5033401;28;20534;-68
2022/01/14 11:01:18;;;;;;;7.47;3.00;;;13.10;97.00;;;;;;5032900;28;20124;-70
2022/01/14 11:03:48;;;;;;;7.28;3.03;;;13.20;96.50;;;;;;5033375;28;20029;-68
2022/01/14 11:06:39;;;;;;;7.78;3.08;;;13.20;96.40;;;;;;5032706;28;20451;-68
2022/01/14 11:09:12;;;;;;;12.95;3.42;;;13.30;95.80;;;;;;5032830;28;20025;-68
2022/01/14 11:11:44;;;;;;;6.78;2.65;;;13.30;96.70;;;;;;5032889;28;20088;-68
2022/01/14 11:14:11;;;;;;;6.18;2.97;;;13.30;95.90;;;;;;5033185;28;20027;-68
2022/01/14 11:16:38;;;;;;;7.53;2.58;;;13.20;96.00;;;;;;5033118;28;20057;-66
2022/01/14 11:19:06;;;;;;;;;;;13.30;96.20;;;;;;5033342;28;20026;-69
2022/01/14 11:24:24;;;;;;;5.90;3.60;;;13.80;96.40;;;;;;5033184;28;20063;-69
2022/01/14 11:26:55;;;;;;;7.40;2.72;;;14.10;95.60;;;;;;5032686;28;20079;-68
2022/01/14 11:29:23;;;;;;;8.25;2.75;;;14.40;94.90;;;;;;5032694;28;20065;-69
2022/01/14 11:31:58;;;;;;;4.53;2.40;;;14.30;95.10;;;;;;5032393;28;20025;-68
2022/01/14 11:34:42;;;;;;;6.97;2.58;;;14.30;92.70;;;;;;5014459;28;20027;-68
2022/01/14 11:37:17;;;;;;;6.90;2.40;;;14.10;93.90;;;;;;5032363;28;20079;-70
2022/01/14 11:40:08;;;;;;;5.63;2.30;;;14.00;93.20;;;;;;5033048;28;20394;-68
2022/01/14 11:42:43;;;;;;;4.63;2.72;;;13.90;93.40;;;;;;5032875;28;20097;-69
2022/01/14 11:45:11;;;;;;;6.75;2.97;;;14.00;93.50;;;;;;5032424;28;20136;-69
2022/01/14 11:47:41;;;;;;;6.22;2.42;;;14.00;93.80;;;;;;5032417;28;20416;-70
2022/01/14 11:50:30;;;;;;;4.75;2.33;;;14.10;93.50;;;;;;5032364;28;20161;-70
2022/01/14 11:53:01;;;;;;;5.15;2.33;;;14.50;92.60;;;;;;5031749;28;20097;-70
2022/01/14 11:55:38;;;;;;;5.68;2.20;;;14.30;90.80;;;;;;5032491;28;20034;-70
2022/01/14 11:58:04;;;;;;;;;;;14.00;91.60;;;;;;5042486;28;20102;-70
2022/01/14 12:00:30;;;;;;;8.30;2.42;;;13.70;91.50;;;;;;5051308;28;19905;-70
2022/01/14 12:02:59;;;;;;;5.57;2.45;;;13.70;92.10;;;;;;5033479;28;20029;-70
2022/01/14 12:05:29;;;;;;;3.97;2.10;;;13.70;92.70;;;;;;5051343;28;20461;-70
2022/01/14 12:08:05;;;;;;;5.93;2.40;;;13.80;91.40;;;;;;5050961;28;20100;-69
2022/01/14 12:10:38;;;;;;;5.05;2.22;;;13.80;91.10;;;;;;5051291;28;20147;-71
2022/01/14 12:16:04;;;;;;;5.47;2.28;;;13.60;91.20;;;;;;5050877;28;20096;-70
2022/01/14 12:18:59;;;;;;;3.75;1.75;;;13.70;90.60;;;;;;5051406;28;20389;-70
2022/01/14 12:21:44;;;;;;;11.45;3.45;;;13.70;90.90;;;;;;5020778;28;20029;-70
2022/01/14 12:24:18;;;;;;;6.43;2.90;;;14.00;94.20;;;;;;5051756;28;20029;-70
2022/01/14 12:29:30;;;;;;;;;;;14.50;94.80;;;;;;5052471;28;20037;-71
2022/01/14 12:32:11;;;;;;;8.87;3.27;;;14.70;94.70;;;;;;5052075;28;19905;-70
2022/01/14 12:34:57;;;;;;;10.15;3.25;;;15.00;94.50;;;;;;5034054;28;20028;-70
2022/01/14 12:37:24;;;;;;;;;;;15.20;94.20;;;;;;5052317;28;20037;-69
2022/01/14 12:39:51;;;;;;;7.22;3.38;;;15.00;94.00;;;;;;5052005;28;19944;-70
2022/01/14 12:42:22;;;;;;;5.82;3.28;;;15.10;94.70;;;;;;5051895;28;20474;-70
2022/01/14 12:44:52;;;;;;;7.55;3.30;;;15.20;94.60;;;;;;5051982;28;20025;-69
2022/01/14 12:47:26;;;;;;;9.07;3.30;;;15.30;94.70;;;;;;5051991;28;20355;-70
2022/01/14 12:49:53;;;;;;;8.85;3.40;;;15.40;94.70;;;;;;5051791;28;20033;-70
2022/01/14 12:52:37;;;;;;;8.50;3.40;;;15.50;94.60;;;;;;5052146;28;20369;-69
2022/01/14 12:55:06;;;;;;;5.50;3.20;;;15.50;94.50;;;;;;5051976;28;20052;-70
2022/01/14 12:57:32;;;;;;;13.77;4.10;;;15.50;94.40;;;;;;5052168;28;20025;-71
2022/01/14 12:59:58;;;;;;;8.32;4.10;;;15.30;94.30;;;;;;5052187;28;20025;-70
2022/01/14 13:02:29;;;;;;;9.48;4.30;;;15.40;94.50;;;;;;5052500;28;20404;-70
2022/01/14 13:05:06;;;;;;;10.93;3.63;;;15.60;94.70;;;;;;5030296;28;20050;-69
2022/01/14 13:07:34;;;;;;;10.25;3.50;;;15.20;94.30;;;;;;5032005;28;20030;-68
2022/01/14 13:10:00;;;;;;;8.05;2.80;;;15.30;95.80;;;;;;5031997;28;20489;-70
2022/01/14 13:12:30;;;;;;;5.25;2.70;;;15.20;94.60;;;;;;5031869;28;20105;-69
2022/01/14 13:15:02;;;;;;;5.43;2.80;;;15.20;94.70;;;;;;5031888;28;20140;-70
2022/01/14 13:17:34;;;;;;;5.95;2.50;;;15.50;94.40;;;;;;5033200;28;20111;-71
2022/01/14 13:20:05;;;;;;;5.22;2.60;;;15.70;94.00;;;;;;5034614;28;20022;-69
2022/01/14 13:22:33;;;;;;;6.00;2.60;;;15.60;94.00;;;;;;5036294;28;20400;-70
2022/01/14 13:25:06;;;;;;;8.82;2.80;;;15.70;93.70;;;;;;5035769;28;20119;-69
2022/01/14 13:27:45;;;;;;;7.85;2.50;;;15.70;93.50;;;;;;5035873;28;20026;-70
2022/01/14 13:30:28;;;;;;;5.28;2.72;;;15.40;94.30;;;;;;5036135;28;20038;-69
2022/01/14 13:32:57;;;;;;;5.00;2.63;;;15.50;94.10;;;;;;5034281;28;20057;-69
2022/01/14 13:35:27;;;;;;;6.03;2.75;;;15.50;94.20;;;;;;5035325;28;20029;-70
2022/01/14 13:37:59;;;;;;;4.72;2.63;;;15.50;94.90;;;;;;5036192;28;20022;-69
2022/01/14 13:40:29;;;;;;;7.45;2.88;;;15.40;94.60;;;;;;5036258;28;20462;-71